Saturday, October 20, 2018, 5:40 AM CDT
Back to Local

KVPZ, Valparaiso Porter Co Muni

Location: Valparaiso, IN, United States Lat: 41.45
Local Time: 5:40 AM CDT (10:40 GMT) Lon: -87
Time Zone: US/Central Elev: 770 ft

Show me the last for .
Show Decoded

2018-10-20 04:56 METAR KVPZ 200956Z AUTO 27007KT 10SM CLR 08/04 A2986 RMK AO2 SLP114 T00830044 =
2018-10-20 03:56 METAR KVPZ 200856Z AUTO 27007KT 10SM CLR 09/06 A2985 RMK AO2 SLP111 T00890056
                 58001 =
2018-10-20 02:56 METAR KVPZ 200756Z AUTO 27007KT 10SM CLR 09/07 A2986 RMK AO2 SLP113 T00890067 =
2018-10-20 01:56 METAR KVPZ 200656Z AUTO 27008KT 10SM CLR 10/07 A2986 RMK AO2 SLP113 T01000072 =
2018-10-20 00:56 METAR KVPZ 200556Z AUTO 26009KT 10SM CLR 11/08 A2986 RMK AO2 SLP111 T01060078
                 10117 20106 401390050 57002 =
2018-10-19 23:56 METAR KVPZ 200456Z AUTO 26010KT 10SM SCT015 SCT065 11/08 A2986 RMK AO2 SLP112
                 T01110078 =
2018-10-19 22:56 METAR KVPZ 200356Z AUTO 24011KT 10SM SCT019 SCT070 11/07 A2986 RMK AO2 SLP113
                 T01110072 =
2018-10-19 22:28 METAR KVPZ 200328Z AUTO 24011KT 10SM SCT022 SCT060 11/07 A2986 RMK AO2 T01110072
                 =
2018-10-19 21:56 METAR KVPZ 200256Z AUTO 23014KT 10SM BKN024 OVC042 12/07 A2986 RMK AO2 SLP114
                 T01170072 58006 =
2018-10-19 20:56 METAR KVPZ 200156Z AUTO 25012KT 10SM SCT022 OVC028 12/07 A2987 RMK AO2 SLP117
                 T01170072 =
2018-10-19 19:56 METAR KVPZ 200056Z AUTO 23011G18KT 10SM OVC025 11/08 A2988 RMK AO2 SLP121
                 T01110078 =
2018-10-19 19:11 METAR KVPZ 200011Z AUTO 22014KT 9SM FEW010 OVC026 11/08 A2989 RMK AO2 T01110083
                 =
2018-10-19 18:56 METAR KVPZ 192356Z AUTO 23015G23KT 9SM FEW006 BKN010 OVC026 11/08 A2988 RMK AO2
                 PK WND 22029/2326 SLP121 60002 T01110083 10139 20100 56006 =
2018-10-19 17:56 METAR KVPZ 192256Z AUTO 22012KT 4SM BR OVC005 10/08 A2989 RMK AO2 RAB23E33
                 SLP122 P0000 T01000078 =
2018-10-19 17:54 METAR KVPZ 192254Z AUTO 22013KT 3SM BR OVC005 10/08 A2989 RMK AO2 RAB23E33 P0000
                 =
2018-10-19 17:27 METAR KVPZ 192227Z AUTO 21011KT 2SM -RA BR OVC008 10/08 A2989 RMK AO2 RAB23 CIG
                 005V011 P0000 T01000078 =
2018-10-19 17:17 METAR KVPZ 192217Z AUTO 21010KT 3SM BR BKN008 OVC014 10/08 A2990 RMK AO2 CIG
                 005V011 T01000078 =
2018-10-19 17:10 METAR KVPZ 192210Z AUTO 21009KT 2 1/2SM HZ BKN008 OVC014 10/07 A2990 RMK AO2
                 T01000072 =
2018-10-19 16:56 METAR KVPZ 192156Z AUTO 22013G22KT 2SM HZ FEW010 BKN014 OVC022 10/07 A2990 RMK
                 AO2 PK WND 21028/2141 SLP128 T01000072 =
2018-10-19 16:31 METAR KVPZ 192131Z AUTO 23017G23KT 10SM BKN024 OVC030 11/06 A2991 RMK AO2
                 T01110061 =
2018-10-19 15:56 METAR KVPZ 192056Z AUTO 21010KT 10SM BKN034 BKN041 OVC050 11/06 A2991 RMK AO2
                 RAE42 SLP131 P0000 60002 T01110061 58034 =
2018-10-19 14:56 METAR KVPZ 191956Z AUTO 21011KT 10SM -RA OVC042 11/06 A2995 RMK AO2 SLP143 P0001
                 T01060061 =
2018-10-19 13:56 METAR KVPZ 191856Z AUTO 21012G24KT 6SM -RA OVC044 12/04 A2998 RMK AO2 RAB33
                 SLP155 P0001 T01170039 =
2018-10-19 12:56 METAR KVPZ 191756Z AUTO 21015G22KT 10SM OVC070 14/01 A3001 RMK AO2 SLP165
                 T01390011 10139 20067 58047 =
2018-10-19 11:56 METAR KVPZ 191656Z AUTO 21015KT 10SM OVC100 13/01 A3007 RMK AO2 SLP185 T01330011
                 =
2018-10-19 10:56 METAR KVPZ 191556Z AUTO 21012G20KT 10SM BKN110 11/01 A3011 RMK AO2 SLP200
                 T01110011 =
2018-10-19 09:56 METAR KVPZ 191456Z AUTO 21012G20KT 10SM FEW110 10/00 A3015 RMK AO2 SLP214
                 T01000000 58013 =
2018-10-19 08:56 METAR KVPZ 191356Z AUTO 21010KT 10SM CLR 09/00 A3018 RMK AO2 SLP221 T00890000 =
2018-10-19 07:56 METAR KVPZ 191256Z AUTO 21008KT 10SM CLR 07/M01 A3019 RMK AO2 SLP227 T00721006 =
2018-10-19 06:56 METAR KVPZ 191156Z AUTO 20006KT 10SM CLR 07/M01 A3019 RMK AO2 SLP227 T00671006
                 10067 20050 58026 =
2018-10-19 05:56 METAR KVPZ 191056Z AUTO 19005KT 10SM CLR 06/M01 A3022 RMK AO2 SLP236 T00611006 =

Support USWX by starting your Amazon purchase here.